Ana Sayfa
METAR-TAF:

METAR-TAF

Havaalanları :

Sari Deşt-i Naz Havaalanı

Sari, İran

Enlem: 36-38-09N, Boylam: 53-11-37E, yükseklik: 11 m

Güncel hava durumu gözlemi

Rapor saat 12:00 UTC de 47 dakika önce yapıldı.
Rüzgar kuzey/kuzeydoğudan 8 kt
Sıcaklık 14°C
Nem 55%
Basınç 1016 hPa
Görüş mesafesi 10 km veya daha fazla
1500 m altında bulut yok ve kümülonimbus yok

METAR: OINZ 131200Z 03008KT CAVOK 14/05 Q1016

Saat: 16:17 (12:47 UTC)


TAF: eksik

4.000'den fazla havaalanı için hava durumu gözlemleri ve tahminleri (METAR ve TAF raporları).

Kullanılabilir istasyonlar harita üzerinde sarı ve kırmızı noktalarla gösterilir.

İstasyonun adını görmek için fareyi noktanın üzerinde gezdirin.

Sonrasında hava gözlem ve tahminlerini görmek için tıklayın.

Haritayı değiştirmek için: yaklaştırmak için siyah artı işaretli yeşil düğmeye ve uzaklaştırmak için de eksi işaretli düğmeye hızla tıklayın; bitişik haritalar için yeşil okları kullanın.


METAR-TAF: